Eldon, Washington
Current Conditions -  °F | °C
As of 10:53 PM on Tuesday 21 Oct 2014 (Local Time) from KSHN Reporting Station
Overcast Overcast  
Wind Chill: 58°   Ceiling: 5000
Heat Index: 58°   Visibility: 10mi
Dew Point: 48°   Wind: 17mph
Humidity: 70%   Direction: 160°SSE
Pressure: 29.73"   Gusts: 29mph
Location:  47.5561°N, 123.25°W
Report Text: KSHN 220553Z AUTO 16015G25KT 10SM FEW034 BKN050 OVC080 14/09 A2973 RMK AO2 RAB02E22 SLP068 P0000 60000 T01440089 10144 20133 56023 TSNO
Loading
Personal Weather Stations






























Interactive Weather Map
Tropical Storm Tracking
New forecast layout! Learn more

10-Day Weather Forecast

Advertisements
Track Severe Weather on mobile